Time;durP1;ratioP1;P1;durP2;ratioP2;P2;SDS_P1;SDS_P2;PMS_P1;PMS_P2;Temp;Humidity;BMP_temperature;BMP_pressure;BME280_temperature;BME280_humidity;BME280_pressure;Samples;Min_cycle;Max_cycle;Signal;HPM_P1;HPM_P2
2021/07/12 00:00:58;;;;;;;;;9.50;6.25;;;;;24.16;47.89;100762.28;5057144;28;51159;-46
2021/07/12 00:03:24;;;;;;;;;6.00;4.25;;;;;24.14;48.10;100757.00;5063998;28;51366;-50
2021/07/12 00:05:49;;;;;;;;;5.50;5.50;;;;;24.14;48.32;100751.47;5076957;28;51701;-48
2021/07/12 00:08:15;;;;;;;;;6.50;6.00;;;;;24.12;48.34;100745.34;5077085;28;51024;-50
2021/07/12 00:10:40;;;;;;;;;11.50;8.00;;;;;24.11;48.10;100738.13;5076972;28;51091;-50
2021/07/12 00:13:06;;;;;;;;;8.25;7.25;;;;;24.11;48.37;100740.91;5077124;28;50991;-49
2021/07/12 00:15:32;;;;;;;;;6.75;6.75;;;;;24.11;48.19;100742.84;5076784;28;51990;-49
2021/07/12 00:17:58;;;;;;;;;8.50;8.50;;;;;24.10;48.20;100730.09;5077128;28;50895;-47
2021/07/12 00:20:24;;;;;;;;;10.50;6.50;;;;;24.09;47.97;100714.59;5076615;28;51067;-45
2021/07/12 00:22:51;;;;;;;;;8.25;6.75;;;;;24.05;48.13;100697.63;5077095;28;50938;-50
2021/07/12 00:25:19;;;;;;;;;7.25;7.25;;;;;24.06;48.21;100701.22;5076526;28;51097;-48
2021/07/12 00:27:45;;;;;;;;;9.00;8.25;;;;;24.05;48.23;100694.84;5076835;28;51314;-51
2021/07/12 00:30:13;;;;;;;;;6.00;6.00;;;;;24.06;48.36;100698.47;5076638;28;51132;-51
2021/07/12 00:32:41;;;;;;;;;6.50;5.50;;;;;24.04;48.13;100695.09;5077094;28;50941;-49
2021/07/12 00:35:09;;;;;;;;;8.50;5.25;;;;;24.04;48.58;100693.19;5076274;28;51072;-48
2021/07/12 00:37:34;;;;;;;;;6.50;6.00;;;;;24.02;48.04;100692.59;5076728;28;51369;-49
2021/07/12 00:40:00;;;;;;;;;5.25;4.75;;;;;24.02;48.29;100702.81;5076431;28;51262;-49
2021/07/12 00:42:25;;;;;;;;;4.50;4.25;;;;;24.01;48.35;100720.50;5077246;28;51026;-47
2021/07/12 00:44:51;;;;;;;;;5.00;5.00;;;;;23.99;48.69;100740.13;5074794;28;51138;-48
2021/07/12 00:47:16;;;;;;;;;6.00;4.00;;;;;23.99;48.14;100742.91;5076769;28;51022;-47
2021/07/12 00:49:42;;;;;;;;;5.00;5.00;;;;;23.97;48.44;100734.03;5076324;28;51023;-47
2021/07/12 00:52:07;;;;;;;;;3.25;3.25;;;;;23.97;48.23;100745.09;5076926;28;51161;-51
2021/07/12 00:54:34;;;;;;;;;5.00;5.00;;;;;23.97;48.25;100752.50;5076425;28;50919;-50
2021/07/12 00:57:02;;;;;;;;;5.00;5.00;;;;;23.95;48.21;100746.41;5076386;28;51091;-49
2021/07/12 00:59:28;;;;;;;;;5.25;3.25;;;;;23.94;48.08;100745.56;5076774;28;51040;-52
2021/07/12 01:01:53;;;;;;;;;3.00;3.00;;;;;23.94;48.68;100755.78;5077012;28;51088;-50
2021/07/12 01:04:19;;;;;;;;;4.00;4.00;;;;;23.92;48.56;100741.38;5061411;28;51905;-52
2021/07/12 01:06:44;;;;;;;;;4.00;4.00;;;;;23.89;48.49;100738.00;5055686;28;51274;-51
2021/07/12 01:09:10;;;;;;;;;7.25;4.25;;;;;23.88;48.47;100739.09;5056252;28;51069;-50
2021/07/12 01:11:43;;;;;;;;;3.25;3.25;;;;;23.86;48.26;100730.22;5056258;28;51084;-51
2021/07/12 01:14:57;;;;;;;;;3.00;3.00;;;;;23.86;48.48;100718.28;5055779;28;51853;-49
2021/07/12 01:17:40;;;;;;;;;4.75;4.75;;;;;23.85;48.28;100708.31;5055598;28;51103;-46
2021/07/12 01:20:45;;;;;;;;;3.25;2.00;;;;;23.84;48.30;100703.88;5055734;28;50980;-50
2021/07/12 01:23:35;;;;;;;;;4.50;4.50;;;;;23.83;48.46;100693.91;5055898;28;51264;-50
2021/07/12 01:26:19;;;;;;;;;4.25;3.00;;;;;23.83;48.43;100685.59;5055582;28;51097;-51
2021/07/12 01:29:01;;;;;;;;;5.00;4.75;;;;;23.82;48.71;100675.63;5055987;28;51040;-51
2021/07/12 01:31:53;;;;;;;;;5.00;4.75;;;;;23.80;48.56;100675.88;5055876;28;51071;-46
2021/07/12 01:34:32;;;;;;;;;4.75;4.25;;;;;23.80;48.22;100663.97;5055849;28;51335;-51
2021/07/12 01:37:19;;;;;;;;;3.25;3.25;;;;;23.80;48.38;100661.22;5055475;28;52080;-48
2021/07/12 01:39:48;;;;;;;;;5.00;3.00;;;;;23.79;48.42;100654.00;5055218;28;51082;-51
2021/07/12 01:42:40;;;;;;;;;3.00;3.00;;;;;23.78;48.51;100647.63;5055708;28;50965;-49
2021/07/12 01:45:10;;;;;;;;;4.50;4.50;;;;;23.78;48.43;100644.03;5048778;28;51343;-52
2021/07/12 01:48:03;;;;;;;;;5.25;4.75;;;;;23.78;48.49;100641.25;5066989;28;52073;-45
2021/07/12 01:51:13;;;;;;;;;4.50;4.50;;;;;23.76;48.70;100641.53;5075710;28;51852;-45
2021/07/12 01:53:45;;;;;;;;;5.75;5.75;;;;;23.76;48.32;100640.66;4993502;28;51129;-51
2021/07/12 01:56:15;;;;;;;;;3.50;3.50;;;;;23.75;48.20;100637.03;5062041;28;51865;-48
2021/07/12 01:58:48;;;;;;;;;4.25;4.25;;;;;23.75;48.31;100633.44;5075320;28;51820;-51
2021/07/12 02:01:15;;;;;;;;;7.00;4.50;;;;;23.75;48.58;100636.22;5075794;28;50969;-49
2021/07/12 02:03:42;;;;;;;;;3.50;3.50;;;;;23.74;48.37;100635.38;5075384;28;51085;-49
2021/07/12 02:06:10;;;;;;;;;3.00;3.00;;;;;23.72;48.62;100640.31;5075772;28;51347;-49
2021/07/12 02:08:43;;;;;;;;;3.25;3.25;;;;;23.73;48.49;100650.28;5075468;28;50952;-49
2021/07/12 02:11:09;;;;;;;;;2.75;2.75;;;;;23.72;48.73;100650.53;5075606;28;51397;-50
2021/07/12 02:13:36;;;;;;;;;3.50;3.50;;;;;23.71;48.42;100646.09;5075808;28;51023;-50
2021/07/12 02:16:05;;;;;;;;;4.00;4.00;;;;;23.71;48.40;100657.16;5075524;28;51059;-49
2021/07/12 02:18:33;;;;;;;;;3.00;3.00;;;;;23.70;48.42;100656.34;5078114;28;51765;-49
2021/07/12 02:20:59;;;;;;;;;4.50;4.25;;;;;23.70;48.48;100661.03;5079004;28;51215;-49
2021/07/12 02:23:26;;;;;;;;;3.25;3.25;;;;;23.69;48.18;100662.94;5079153;28;51245;-45
2021/07/12 02:25:53;;;;;;;;;3.00;3.00;;;;;23.69;48.47;100667.66;5079011;28;51101;-50
2021/07/12 02:28:19;;;;;;;;;3.25;2.75;;;;;23.67;48.62;100667.91;5078838;28;50983;-49
2021/07/12 02:30:46;;;;;;;;;3.25;3.25;;;;;23.67;48.32;100672.59;5078905;28;51131;-47
2021/07/12 02:33:12;;;;;;;;;3.00;3.00;;;;;23.66;48.48;100670.91;5079132;28;51067;-51
2021/07/12 02:35:39;;;;;;;;;4.00;4.00;;;;;23.65;48.80;100663.69;5078916;28;51008;-50
2021/07/12 02:38:07;;;;;;;;;2.00;2.00;;;;;23.65;48.42;100663.69;5078648;28;51042;-51
2021/07/12 02:40:32;;;;;;;;;4.00;2.25;;;;;23.63;48.14;100652.88;5078862;28;51097;-47
2021/07/12 02:43:00;;;;;;;;;4.00;4.00;;;;;23.63;48.49;100652.88;5078856;28;51199;-48
2021/07/12 02:45:28;;;;;;;;;4.75;4.00;;;;;23.63;48.17;100654.78;5079070;28;51097;-49
2021/07/12 02:47:53;;;;;;;;;3.50;3.50;;;;;23.63;48.82;100652.88;5078533;28;52286;-51
2021/07/12 02:50:20;;;;;;;;;3.75;3.75;;;;;23.61;48.90;100653.13;5078085;28;51198;-49
2021/07/12 02:53:06;;;;;;;;;5.25;3.50;;;;;23.60;48.62;100640.38;5078832;28;50956;-50
2021/07/12 02:55:32;;;;;;;;;3.75;3.75;;;;;23.61;48.82;100639.28;5078680;28;51194;-50
2021/07/12 02:57:58;;;;;;;;;6.25;5.50;;;;;23.61;48.84;100630.16;5078327;28;51947;-50
2021/07/12 03:00:23;;;;;;;;;6.00;5.00;;;;;23.61;48.48;100624.63;5078888;28;51311;-50
2021/07/12 03:02:49;;;;;;;;;4.00;4.00;;;;;23.61;49.25;100624.63;5076457;28;51293;-51
2021/07/12 03:05:14;;;;;;;;;5.50;5.25;;;;;23.59;49.09;100616.59;5057983;28;51709;-51
2021/07/12 03:07:47;;;;;;;;;4.75;4.00;;;;;23.60;49.24;100612.72;5057846;28;51729;-45
2021/07/12 03:10:17;;;;;;;;;5.00;3.75;;;;;23.58;49.34;100606.63;5058164;28;51362;-48
2021/07/12 03:12:52;;;;;;;;;4.50;4.50;;;;;23.59;48.73;100613.00;5058258;28;51346;-50
2021/07/12 03:15:24;;;;;;;;;6.75;3.25;;;;;23.58;48.79;100614.03;5058068;28;51057;-48
2021/07/12 03:17:55;;;;;;;;;4.00;3.00;;;;;23.58;49.04;100612.16;5057945;28;51019;-52
2021/07/12 03:20:21;;;;;;;;;3.00;3.00;;;;;23.56;48.74;100600.47;5057629;28;51365;-50
2021/07/12 03:22:51;;;;;;;;;3.50;3.50;;;;;23.57;49.11;100581.97;5058066;28;51187;-49
2021/07/12 03:25:22;;;;;;;;;4.25;4.25;;;;;23.55;48.97;100571.16;5058190;28;51039;-48
2021/07/12 03:27:49;;;;;;;;;4.00;4.00;;;;;23.55;48.83;100573.03;5057401;28;51049;-49
2021/07/12 03:30:15;;;;;;;;;3.25;3.25;;;;;23.54;48.99;100572.22;5056521;28;51339;-49
2021/07/12 03:32:44;;;;;;;;;4.00;4.00;;;;;23.54;48.94;100574.97;5056399;28;51091;-47
2021/07/12 03:35:12;;;;;;;;;4.25;3.00;;;;;23.53;48.80;100553.13;5057517;28;50975;-48
2021/07/12 03:37:38;;;;;;;;;4.00;4.00;;;;;23.52;48.97;100563.34;5057576;28;51933;-48
2021/07/12 03:40:04;;;;;;;;;4.00;4.00;;;;;23.51;49.09;100555.28;5057344;28;51166;-48
2021/07/12 03:42:34;;;;;;;;;6.00;5.00;;;;;23.51;49.11;100549.75;5057681;28;51033;-48
2021/07/12 03:45:00;;;;;;;;;4.75;3.00;;;;;23.50;48.90;100545.31;5057561;28;51167;-48
2021/07/12 03:47:28;;;;;;;;;3.75;3.75;;;;;23.48;49.37;100559.41;5065223;28;52645;-50
2021/07/12 03:50:06;;;;;;;;;3.00;3.00;;;;;23.47;49.15;100562.44;5077625;28;51178;-47
2021/07/12 03:52:40;;;;;;;;;5.00;4.50;;;;;23.45;49.50;100561.84;5077813;28;50923;-50
2021/07/12 03:55:06;;;;;;;;;4.75;4.00;;;;;23.45;49.24;100564.59;5077516;28;51163;-50
2021/07/12 03:57:31;;;;;;;;;3.00;3.00;;;;;23.44;49.30;100565.66;5077514;28;51787;-49
2021/07/12 03:59:57;;;;;;;;;5.00;4.00;;;;;23.43;49.35;100566.75;5077674;28;51132;-49
2021/07/12 04:02:22;;;;;;;;;4.25;3.75;;;;;23.43;49.25;100567.59;5077591;28;51075;-50
2021/07/12 04:04:48;;;;;;;;;3.50;3.50;;;;;23.42;49.45;100559.56;5058603;28;51297;-50
2021/07/12 04:07:13;;;;;;;;;3.25;3.00;;;;;23.40;49.37;100551.50;5056908;28;50951;-46
2021/07/12 04:09:38;;;;;;;;;5.00;3.00;;;;;23.39;49.12;100555.38;5056925;28;50965;-48
2021/07/12 04:12:04;;;;;;;;;3.00;3.00;;;;;23.38;49.77;100547.31;5057391;28;51128;-49
2021/07/12 04:14:29;;;;;;;;;4.00;4.00;;;;;23.37;49.32;100546.50;5055824;28;51295;-49
2021/07/12 04:16:55;;;;;;;;;5.00;4.25;;;;;23.36;49.93;100547.56;5056878;28;51819;-51
2021/07/12 04:19:20;;;;;;;;;4.00;3.00;;;;;23.35;49.75;100559.72;5056974;28;50930;-47
2021/07/12 04:21:45;;;;;;;;;3.00;3.00;;;;;23.34;49.80;100560.78;5056957;28;50976;-50
2021/07/12 04:24:11;;;;;;;;;2.00;2.00;;;;;23.33;49.87;100565.47;5057183;28;50946;-51
2021/07/12 04:26:36;;;;;;;;;3.00;2.50;;;;;23.32;49.92;100569.31;5056444;28;51161;-47
2021/07/12 04:29:01;;;;;;;;;2.75;2.75;;;;;23.32;49.95;100580.38;5056907;28;51111;-51
2021/07/12 04:31:26;;;;;;;;;3.00;3.00;;;;;23.31;49.41;100581.47;5056871;28;51159;-49
2021/07/12 04:33:52;;;;;;;;;4.00;3.00;;;;;23.29;49.58;100586.41;5057130;28;51061;-49
2021/07/12 04:36:17;;;;;;;;;4.00;4.00;;;;;23.29;49.82;100580.06;5056462;28;51826;-48
2021/07/12 04:38:42;;;;;;;;;2.50;2.50;;;;;23.28;49.95;100572.84;5056552;28;50968;-51
2021/07/12 04:41:08;;;;;;;;;4.25;3.50;;;;;23.27;49.65;100576.69;5056251;28;51503;-48
2021/07/12 04:43:33;;;;;;;;;3.00;3.00;;;;;23.25;49.64;100571.44;5057030;28;51020;-48
2021/07/12 04:45:59;;;;;;;;;3.25;3.25;;;;;23.25;49.53;100581.63;5056152;28;51994;-51
2021/07/12 04:48:24;;;;;;;;;5.00;4.25;;;;;23.24;49.50;100585.47;5056835;28;51024;-51
2021/07/12 04:50:49;;;;;;;;;4.00;4.00;;;;;23.22;49.86;100580.19;5056308;28;51054;-48
2021/07/12 04:53:15;;;;;;;;;2.00;2.00;;;;;23.22;49.73;100573.81;5056873;28;51061;-49
2021/07/12 04:55:40;;;;;;;;;3.25;3.25;;;;;23.20;50.24;100574.06;5055928;28;51036;-48
2021/07/12 04:58:07;;;;;;;;;3.75;3.00;;;;;23.20;50.31;100571.31;5056380;28;51154;-51
2021/07/12 05:00:33;;;;;;;;;4.00;4.00;;;;;23.20;49.68;100576.84;5056375;28;51013;-49
2021/07/12 05:02:58;;;;;;;;;4.00;3.00;;;;;23.20;49.90;100576.00;5059569;28;51137;-45
2021/07/12 05:05:24;;;;;;;;;3.75;3.75;;;;;23.20;49.74;100567.72;5076116;28;51004;-45
2021/07/12 05:07:49;;;;;;;;;4.50;3.00;;;;;23.19;50.05;100568.81;5076413;28;51177;-45
2021/07/12 05:10:15;;;;;;;;;4.00;3.00;;;;;23.18;50.07;100561.59;5076539;28;51124;-45
2021/07/12 05:12:40;;;;;;;;;3.00;3.00;;;;;23.19;50.06;100552.22;5076486;28;51072;-46
2021/07/12 05:15:07;;;;;;;;;3.75;3.75;;;;;23.18;50.07;100556.06;5057979;28;52454;-45
2021/07/12 05:17:33;;;;;;;;;5.00;5.00;;;;;23.17;50.04;100551.63;5076308;28;51375;-46
2021/07/12 05:19:58;;;;;;;;;3.00;3.00;;;;;23.17;50.10;100541.41;5076300;28;51665;-47
2021/07/12 05:22:25;;;;;;;;;5.00;5.00;;;;;23.16;49.86;100533.38;5076620;28;51073;-46
2021/07/12 05:24:51;;;;;;;;;5.50;5.50;;;;;23.14;50.39;100538.31;5075855;28;51916;-50
2021/07/12 05:27:17;;;;;;;;;3.75;3.75;;;;;23.13;49.85;100531.94;5075627;28;51012;-47
2021/07/12 05:29:42;;;;;;;;;7.50;4.75;;;;;23.14;50.21;100538.31;5075765;28;51061;-52
2021/07/12 05:32:08;;;;;;;;;4.75;4.50;;;;;23.14;50.51;100541.94;5075868;28;51332;-50
2021/07/12 05:34:33;;;;;;;;;5.25;5.25;;;;;23.13;50.49;100531.94;5075573;28;51903;-50
2021/07/12 05:36:58;;;;;;;;;3.00;3.00;;;;;23.12;50.73;100537.72;5075506;28;50867;-50
2021/07/12 05:39:24;;;;;;;;;5.00;5.00;;;;;23.12;50.48;100532.19;5075519;28;51154;-49
2021/07/12 05:41:49;;;;;;;;;4.00;4.00;;;;;23.11;50.45;100536.03;5075726;28;51169;-50
2021/07/12 05:44:14;;;;;;;;;4.25;3.75;;;;;23.10;50.46;100545.41;5075113;28;52076;-50
2021/07/12 05:46:40;;;;;;;;;6.25;5.00;;;;;;;;5075377;28;51086;-50
2021/07/12 05:49:06;;;;;;;;;5.75;5.75;;;;;23.07;50.52;100541.22;5073931;28;50983;-53
2021/07/12 05:51:31;;;;;;;;;5.00;5.00;;;;;23.08;51.01;100542.06;5075242;28;51028;-52
2021/07/12 05:53:56;;;;;;;;;5.25;4.00;;;;;23.06;51.05;100538.72;5078831;28;51008;-46
2021/07/12 05:56:22;;;;;;;;;4.50;4.50;;;;;23.05;50.92;100537.88;5078889;28;51184;-48
2021/07/12 05:58:47;;;;;;;;;6.00;6.00;;;;;23.04;50.51;100536.19;5079701;28;51039;-49
2021/07/12 06:01:16;;;;;;;;;4.00;4.00;;;;;23.03;50.44;100551.06;5079090;28;51225;-48
2021/07/12 06:03:41;;;;;;;;;4.50;4.25;;;;;23.02;51.29;100543.88;5069355;28;52245;-48
2021/07/12 06:06:06;;;;;;;;;4.75;4.75;;;;;23.01;50.63;100528.38;5058161;28;50877;-48
2021/07/12 06:08:32;;;;;;;;;4.25;4.25;;;;;23.00;51.28;100521.19;5058556;28;50869;-51
2021/07/12 06:10:57;;;;;;;;;4.00;3.25;;;;;22.97;51.14;100517.00;5058388;28;50971;-50
2021/07/12 06:13:22;;;;;;;;;4.75;4.00;;;;;22.98;51.45;100520.59;5058247;28;50949;-45
2021/07/12 06:15:48;;;;;;;;;6.00;5.00;;;;;22.96;51.25;100526.38;5058296;28;50891;-51
2021/07/12 06:18:14;;;;;;;;;4.00;4.00;;;;;22.95;51.49;100533.00;5058342;28;50931;-49
2021/07/12 06:20:41;;;;;;;;;5.00;5.00;;;;;22.95;51.16;100523.88;5067199;28;51598;-49
2021/07/12 06:23:07;;;;;;;;;7.75;5.00;;;;;22.94;51.46;100527.72;5067651;28;51079;-49
2021/07/12 06:25:32;;;;;;;;;5.00;4.00;;;;;22.92;51.96;100527.94;5076084;28;51245;-50
2021/07/12 06:27:57;;;;;;;;;6.00;4.50;;;;;22.92;51.44;100533.47;5077213;28;51331;-49
2021/07/12 06:30:23;;;;;;;;;6.50;5.00;;;;;22.92;51.65;100538.16;5075632;28;51303;-49
2021/07/12 06:32:48;;;;;;;;;4.00;4.00;;;;;22.91;51.85;100529.03;5076060;28;51797;-50
2021/07/12 06:35:14;;;;;;;;;4.50;4.50;;;;;22.88;51.63;100526.75;5058280;28;51139;-46
2021/07/12 06:37:39;;;;;;;;;5.50;5.50;;;;;22.87;52.10;100514.03;5076214;28;51040;-46
2021/07/12 06:40:06;;;;;;;;;5.50;5.50;;;;;22.86;52.07;100501.31;5071661;28;51367;-47
2021/07/12 06:42:31;;;;;;;;;7.00;6.25;;;;;22.84;52.27;100500.75;5076767;28;51965;-51
2021/07/12 06:44:59;;;;;;;;;7.00;6.50;;;;;22.78;52.85;100493.38;5077572;28;51134;-49
2021/07/12 06:47:27;;;;;;;;;5.75;5.25;;;;;22.50;53.46;100499.72;5073482;28;51117;-46
2021/07/12 06:49:53;;;;;;;;;7.00;7.00;;;;;22.29;53.81;100490.16;5070806;28;51254;-49
2021/07/12 06:52:19;;;;;;;;;5.75;5.75;;;;;22.16;54.13;100473.88;5075304;28;51123;-48
2021/07/12 06:54:45;;;;;;;;;7.00;7.00;;;;;22.02;54.30;100466.91;5071524;28;51050;-47
2021/07/12 06:57:11;;;;;;;;;7.00;7.00;;;;;21.81;54.74;100482.16;5076116;27;51268;-51
2021/07/12 06:59:37;;;;;;;;;4.75;4.75;;;;;21.64;55.61;100501.31;5076809;28;51304;-51
2021/07/12 07:02:02;;;;;;;;;7.50;5.50;;;;;21.60;56.07;100520.25;5074613;27;51917;-49
2021/07/12 07:04:28;;;;;;;;;5.25;5.25;;;;;21.62;56.34;100528.28;5071213;28;51899;-47
2021/07/12 07:06:53;;;;;;;;;7.50;6.50;;;;;21.59;56.13;100526.84;5073023;27;51178;-53
2021/07/12 07:09:19;;;;;;;;;6.50;6.50;;;;;21.45;56.06;100535.56;5077515;28;51321;-51
2021/07/12 07:11:44;;;;;;;;;5.25;5.25;;;;;21.35;56.53;100532.53;5073424;28;51063;-49
2021/07/12 07:14:09;;;;;;;;;7.00;6.75;;;;;21.17;56.87;100520.50;5075510;28;51231;-49
2021/07/12 07:16:35;;;;;;;;;8.25;6.00;;;;;21.04;57.54;100526.16;5073966;28;51052;-51
2021/07/12 07:19:00;;;;;;;;;13.50;9.00;;;;;20.94;57.83;100523.97;5075627;28;51194;-51
2021/07/12 07:21:25;;;;;;;;;9.75;7.75;;;;;20.91;58.15;100548.38;5073842;28;51047;-51
2021/07/12 07:23:51;;;;;;;;;6.00;5.75;;;;;20.88;58.33;100538.69;5073391;28;51072;-52
2021/07/12 07:26:16;;;;;;;;;7.25;7.00;;;;;20.80;58.74;100524.41;5076320;28;51256;-48
2021/07/12 07:28:42;;;;;;;;;7.00;7.00;;;;;20.77;59.35;100527.63;5073650;28;51151;-51
2021/07/12 07:31:07;;;;;;;;;8.25;5.75;;;;;20.70;59.29;100535.94;5068741;28;51946;-47
2021/07/12 07:33:33;;;;;;;;;6.75;6.75;;;;;20.64;59.37;100534.97;5071715;28;51042;-48
2021/07/12 07:35:59;;;;;;;;;8.00;6.00;;;;;20.60;59.46;100525.50;5069811;28;51206;-49
2021/07/12 07:38:25;;;;;;;;;7.75;7.25;;;;;20.54;59.87;100520.91;5075134;28;51302;-49
2021/07/12 07:40:51;;;;;;;;;11.50;8.00;;;;;20.51;60.35;100515.03;5071230;28;52745;-51
2021/07/12 07:43:17;;;;;;;;;6.25;6.25;;;;;20.52;60.65;100514.78;5072201;28;51216;-51
2021/07/12 07:45:43;;;;;;;;;8.00;8.00;;;;;20.50;60.88;100522.44;5074738;27;51120;-52
2021/07/12 07:48:08;;;;;;;;;9.00;8.25;;;;;20.50;60.87;100525.19;5076876;28;51284;-51
2021/07/12 07:50:37;;;;;;;;;8.00;8.00;;;;;20.50;61.03;100518.84;5075247;27;52776;-49
2021/07/12 07:53:04;;;;;;;;;12.00;9.00;;;;;20.50;61.14;100514.19;5074743;28;51184;-52
2021/07/12 07:55:30;;;;;;;;;9.00;8.75;;;;;20.48;61.40;100510.81;5074510;28;51160;-51
2021/07/12 07:57:57;;;;;;;;;12.50;10.25;;;;;20.43;61.02;100514.28;5074248;28;51924;-49
2021/07/12 08:00:23;;;;;;;;;9.50;7.75;;;;;20.35;61.64;100509.03;5069019;28;51968;-49
2021/07/12 08:02:50;;;;;;;;;8.25;7.75;;;;;20.34;61.79;100499.13;5071568;28;51297;-53
2021/07/12 08:05:15;;;;;;;;;11.25;9.00;;;;;20.36;61.85;100505.22;5073925;28;51270;-50
2021/07/12 08:07:41;;;;;;;;;11.00;8.25;;;;;20.35;62.04;100494.44;5072883;28;51098;-50
2021/07/12 08:10:08;;;;;;;;;8.00;8.00;;;;;20.35;62.29;100488.94;5075112;28;51818;-51
2021/07/12 08:12:34;;;;;;;;;8.50;7.75;;;;;20.38;62.52;100496.75;5075627;28;51172;-50
2021/07/12 08:14:59;;;;;;;;;10.25;10.25;;;;;20.40;62.31;100487.19;5074573;28;51146;-52
2021/07/12 08:17:24;;;;;;;;;7.75;7.00;;;;;20.45;62.88;100476.38;5076309;28;51084;-52
2021/07/12 08:19:50;;;;;;;;;7.25;7.25;;;;;20.59;62.67;100485.28;5075560;28;51792;-52
2021/07/12 08:22:15;;;;;;;;;12.50;10.25;;;;;20.68;62.37;100494.91;5075689;27;51035;-50
2021/07/12 08:24:40;;;;;;;;;9.75;9.00;;;;;20.69;62.92;100493.81;5075551;27;51177;-52
2021/07/12 08:27:06;;;;;;;;;12.50;8.75;;;;;20.74;62.41;100505.00;5075380;28;51012;-51
2021/07/12 08:29:31;;;;;;;;;9.75;7.50;;;;;20.82;62.13;100509.31;5075475;28;51899;-51
2021/07/12 08:31:57;;;;;;;;;8.75;8.00;;;;;20.81;61.95;100526.06;5075643;28;51112;-50
2021/07/12 08:34:22;;;;;;;;;10.25;8.75;;;;;20.77;61.92;100539.47;5075123;28;51135;-51
2021/07/12 08:36:48;;;;;;;;;8.25;8.25;;;;;20.72;62.01;100545.66;5075693;28;51186;-52
2021/07/12 08:39:13;;;;;;;;;5.75;4.50;;;;;20.71;62.58;100548.63;5074955;28;51108;-53
2021/07/12 08:41:38;;;;;;;;;13.00;9.00;;;;;20.75;61.96;100549.88;5075331;28;51112;-51
2021/07/12 08:44:06;;;;;;;;;10.00;9.00;;;;;20.72;62.15;100555.81;5074102;28;51273;-52
2021/07/12 08:46:31;;;;;;;;;12.75;7.25;;;;;20.66;62.21;100549.34;5075024;28;51125;-53
2021/07/12 08:48:57;;;;;;;;;10.25;10.25;;;;;20.62;61.87;100550.84;5074610;28;52036;-52
2021/07/12 08:51:23;;;;;;;;;8.75;8.75;;;;;20.60;62.77;100553.00;5074648;28;51154;-55
2021/07/12 08:53:48;;;;;;;;;9.25;7.00;;;;;20.58;62.56;100549.66;5075240;28;51063;-51
2021/07/12 08:56:14;;;;;;;;;8.25;8.25;;;;;20.58;63.20;100557.91;5074741;28;51145;-53
2021/07/12 08:58:40;;;;;;;;;9.50;8.75;;;;;20.57;63.03;100556.22;5074493;27;52187;-51
2021/07/12 09:01:09;;;;;;;;;12.50;10.00;;;;;20.58;62.87;100557.91;5074944;28;51318;-49
2021/07/12 09:03:40;;;;;;;;;8.75;8.75;;;;;20.60;63.14;100564.00;5069486;28;51056;-52
2021/07/12 09:06:13;;;;;;;;;11.25;9.50;;;;;20.63;62.81;100554.44;5070376;28;51030;-52
2021/07/12 09:08:42;;;;;;;;;7.50;7.00;;;;;20.63;63.40;100540.69;5068540;27;51199;-51
2021/07/12 09:11:36;;;;;;;;;10.25;9.50;;;;;20.68;63.60;100549.94;5074834;28;51208;-52
2021/07/12 09:14:03;;;;;;;;;14.00;13.00;;;;;20.73;63.23;100546.50;5074872;28;50983;-52
2021/07/12 09:16:43;;;;;;;;;11.25;10.50;;;;;20.74;63.25;100551.78;5074284;28;51296;-52
2021/07/12 09:19:35;;;;;;;;;14.00;12.00;;;;;20.78;63.52;100551.31;5074480;28;51211;-52
2021/07/12 09:22:12;;;;;;;;;11.50;10.00;;;;;20.83;63.22;100556.97;5069288;28;51208;-53
2021/07/12 09:24:55;;;;;;;;;12.25;10.25;;;;;20.82;63.00;100556.13;5074290;28;51058;-54
2021/07/12 09:27:26;;;;;;;;;15.50;10.00;;;;;20.79;63.62;100556.59;5075194;28;51145;-53
2021/07/12 09:30:05;;;;;;;;;11.00;9.50;;;;;20.77;63.57;100563.41;5069905;28;50993;-54
2021/07/12 09:32:32;;;;;;;;;10.25;10.00;;;;;20.77;63.92;100564.25;5069206;28;51582;-52
2021/07/12 09:35:07;;;;;;;;;7.75;7.75;;;;;20.79;64.00;100570.34;5071892;28;51262;-51
2021/07/12 09:37:35;;;;;;;;;11.50;9.75;;;;;20.82;63.67;100578.16;5069378;28;51637;-51
2021/07/12 09:40:03;;;;;;;;;10.50;10.50;;;;;20.84;63.11;100583.41;5063961;28;51966;-52
2021/07/12 09:42:33;;;;;;;;;8.00;8.00;;;;;20.79;63.98;100575.84;5068401;28;52547;-51
2021/07/12 09:45:05;;;;;;;;;8.25;6.25;;;;;20.84;63.55;100586.16;5071456;28;51196;-53
2021/07/12 09:47:34;;;;;;;;;11.75;10.25;;;;;20.84;64.26;100586.16;5073146;28;51108;-52
2021/07/12 09:50:11;;;;;;;;;10.25;9.25;;;;;20.83;64.14;100590.00;5067724;28;51091;-51
2021/07/12 09:53:00;;;;;;;;;11.25;9.00;;;;;20.82;63.24;100602.06;5066631;28;51239;-51
2021/07/12 09:55:25;;;;;;;;;8.50;8.50;;;;;20.77;64.24;100594.53;5069711;28;51225;-50
2021/07/12 09:58:09;;;;;;;;;8.50;8.50;;;;;20.71;64.67;100590.75;5070292;28;51511;-54
2021/07/12 10:00:57;;;;;;;;;8.25;8.25;;;;;20.67;64.71;100595.06;5068998;28;51743;-51
2021/07/12 10:03:23;;;;;;;;;10.25;8.25;;;;;20.60;64.38;100590.69;5064249;28;51167;-53
2021/07/12 10:05:51;;;;;;;;;11.50;6.25;;;;;20.56;64.71;100595.81;5067435;28;51114;-51
2021/07/12 10:08:17;;;;;;;;;9.75;7.50;;;;;20.55;64.91;100594.16;5068500;28;51125;-51
2021/07/12 10:10:43;;;;;;;;;7.00;5.75;;;;;20.54;65.47;100592.47;5069807;27;51106;-53
2021/07/12 10:13:09;;;;;;;;;6.25;5.50;;;;;20.57;64.93;100594.75;5070361;27;52074;-53
2021/07/12 10:15:35;;;;;;;;;7.50;7.00;;;;;20.63;64.95;100595.72;5080309;27;51271;-54
2021/07/12 10:18:01;;;;;;;;;7.00;6.75;;;;;20.63;65.13;100588.31;5067285;28;51339;-51
2021/07/12 10:20:27;;;;;;;;;8.75;5.00;;;;;20.65;65.10;100597.22;5069613;28;51777;-51
2021/07/12 10:22:57;;;;;;;;;6.25;6.00;;;;;20.73;64.67;100585.88;5072407;28;51122;-53
2021/07/12 10:25:27;;;;;;;;;6.25;6.25;;;;;20.87;64.38;100585.72;5068348;28;51079;-51
2021/07/12 10:28:04;;;;;;;;;5.75;5.75;;;;;20.98;63.86;100584.94;5070954;28;51205;-53
2021/07/12 10:30:44;;;;;;;;;7.00;5.00;;;;;21.11;63.43;100586.69;5068928;28;51616;-54
2021/07/12 10:33:12;;;;;;;;;6.75;5.75;;;;;21.23;63.48;100577.38;5068467;28;51340;-51
2021/07/12 10:35:43;;;;;;;;;8.75;8.00;;;;;21.33;63.48;100569.44;5069440;28;51101;-55
2021/07/12 10:38:11;;;;;;;;;24.00;19.50;;;;;21.42;63.02;100575.44;5066230;28;51250;-52
2021/07/12 10:40:46;;;;;;;;;18.75;17.00;;;;;21.51;63.02;100574.03;5065610;28;52016;-56
2021/07/12 10:43:11;;;;;;;;;21.75;16.75;;;;;21.59;62.77;100570.94;5072204;28;51359;-53
2021/07/12 10:45:39;;;;;;;;;18.25;17.75;;;;;21.67;62.71;100578.00;5074817;28;51206;-55
2021/07/12 10:48:12;;;;;;;;;20.00;15.50;;;;;21.76;62.35;100573.00;5074446;28;51164;-53
2021/07/12 10:50:49;;;;;;;;;13.75;13.75;;;;;21.85;62.51;100566.91;5061235;28;51169;-53
2021/07/12 10:53:14;;;;;;;;;16.75;13.25;;;;;21.92;61.97;100561.28;5072633;28;51933;-52
2021/07/12 10:55:41;;;;;;;;;16.33;14.67;;;;;21.97;62.45;100550.38;5072990;28;51353;-54
2021/07/12 10:58:21;;;;;;;;;14.25;12.75;;;;;22.05;61.74;100552.78;5070506;28;51043;-53
2021/07/12 11:00:49;;;;;;;;;11.50;11.25;;;;;22.12;61.51;100548.00;5065316;28;51294;-50
2021/07/12 11:03:37;;;;;;;;;15.50;14.75;;;;;22.19;61.47;100542.34;5072946;28;51335;-53
2021/07/12 11:06:06;;;;;;;;;14.50;12.25;;;;;22.25;61.42;100549.69;5066682;28;51048;-53
2021/07/12 11:08:49;;;;;;;;;10.50;10.25;;;;;22.32;61.22;100544.88;5073966;28;51469;-48
2021/07/12 11:11:20;;;;;;;;;15.25;13.75;;;;;22.37;60.78;100538.63;5075000;28;51102;-51
2021/07/12 11:14:01;;;;;;;;;10.75;10.75;;;;;22.40;60.62;100536.22;5075299;28;51031;-52
2021/07/12 11:16:40;;;;;;;;;12.00;10.75;;;;;22.45;60.95;100539.09;5069216;28;51171;-54
2021/07/12 11:19:19;;;;;;;;;15.50;13.00;;;;;22.51;60.57;100533.66;5076343;27;51269;-52
2021/07/12 11:21:45;;;;;;;;;12.75;11.25;;;;;22.53;60.15;100534.28;5070301;27;51268;-51
2021/07/12 11:24:11;;;;;;;;;14.50;11.75;;;;;22.57;60.13;100530.78;5071208;28;51344;-53
2021/07/12 11:26:39;;;;;;;;;12.25;11.00;;;;;22.60;59.87;100526.69;5065475;28;51191;-52
2021/07/12 11:29:14;;;;;;;;;11.25;11.25;;;;;22.63;59.75;100529.00;5056775;28;51316;-51
2021/07/12 11:31:54;;;;;;;;;11.75;11.75;;;;;22.66;59.78;100529.31;5056403;28;51934;-52